Wednesday, February 22, 2017, 12:26 PM EST

KFYJ, West Point, Middle Peninsula Regional Airport

Location: Shacklefords, VA, United States Lat: 37.521
Local Time: 12:26 PM EST (17:26 GMT) Lon: -76.764
Time Zone: US/Eastern Elev: 22 ft

Show me the last for .
Show Decoded

2017-02-22 12:15 METAR KFYJ 221715Z AUTO 20005KT 10SM OVC090 16/10 A3001 RMK AO2 T01550095 =
2017-02-22 11:55 METAR KFYJ 221655Z AUTO 20006KT 10SM SCT090 BKN110 15/09 A3003 RMK AO2 T01510090
                 =
2017-02-22 11:35 METAR KFYJ 221635Z AUTO 19005KT 10SM BKN110 15/09 A3004 RMK AO2 T01500090 =
2017-02-22 11:15 METAR KFYJ 221615Z AUTO 19003KT 10SM SCT033 SCT043 SCT110 14/09 A3005 RMK AO2
                 T01410090 =
2017-02-22 10:55 METAR KFYJ 221555Z AUTO 19004KT 10SM SCT035 SCT043 BKN110 14/09 A3006 RMK AO2
                 T01350088 =
2017-02-22 10:35 METAR KFYJ 221535Z AUTO 00000KT 10SM SCT033 BKN039 BKN047 12/09 A3007 RMK AO2
                 T01240085 =
2017-02-22 10:15 METAR KFYJ 221515Z AUTO 00000KT 10SM SCT033 OVC045 12/08 A3007 RMK AO2 T01150082
                 =
2017-02-22 09:55 METAR KFYJ 221455Z AUTO 25003KT 10SM BKN045 BKN100 11/08 A3007 RMK AO2 T01080081
                 =
2017-02-22 09:35 METAR KFYJ 221435Z AUTO 25003KT 10SM CLR 10/08 A3008 RMK AO2 T00990080 =
2017-02-22 09:15 METAR KFYJ 221415Z AUTO 00000KT 10SM CLR 09/08 A3007 RMK AO2 T00910077 =
2017-02-22 08:55 METAR KFYJ 221355Z AUTO 00000KT 10SM SCT032 SCT048 08/08 A3008 RMK AO2 T00840076
                 =
2017-02-22 08:35 METAR KFYJ 221335Z AUTO 00000KT 10SM SCT034 SCT047 BKN050 08/07 A3008 RMK AO2
                 T00770070 =
2017-02-22 08:15 METAR KFYJ 221315Z AUTO 00000KT 10SM SCT038 SCT047 07/07 A3008 RMK AO2 T00710065
                 =
2017-02-22 07:55 METAR KFYJ 221255Z AUTO 00000KT 10SM SCT038 SCT047 07/06 A3008 RMK AO2 T00650060
                 =
2017-02-22 07:35 METAR KFYJ 221235Z AUTO 00000KT 10SM SCT034 BKN042 06/06 A3008 RMK AO2 T00610056
                 =
2017-02-22 07:15 METAR KFYJ 221215Z AUTO 00000KT 10SM SCT034 SCT042 05/05 A3007 RMK AO2 T00530047
                 =
2017-02-22 06:55 METAR KFYJ 221155Z AUTO 00000KT 10SM CLR 05/04 A3006 RMK AO2 T00490042 10075
                 20042 =
2017-02-22 06:35 METAR KFYJ 221135Z AUTO 00000KT 10SM SCT036 SCT060 04/04 A3006 RMK AO2 T00430035
                 =
2017-02-22 06:15 METAR KFYJ 221115Z AUTO 00000KT 10SM SCT036 SCT060 05/04 A3007 RMK AO2 T00500044
                 =
2017-02-22 05:55 METAR KFYJ 221055Z AUTO 00000KT 10SM SCT034 05/04 A3007 RMK AO2 T00460039 =
2017-02-22 05:35 METAR KFYJ 221035Z AUTO 00000KT 10SM SCT034 05/04 A3007 RMK AO2 T00480041 =
2017-02-22 05:15 METAR KFYJ 221015Z AUTO 00000KT 10SM CLR 05/04 A3007 RMK AO2 T00470040 =
2017-02-22 04:55 METAR KFYJ 220955Z AUTO 00000KT 10SM CLR 05/04 A3007 RMK AO2 T00510044 =
2017-02-22 04:35 METAR KFYJ 220935Z AUTO 00000KT 10SM CLR 05/05 A3007 RMK AO2 T00530045 =
2017-02-22 04:15 METAR KFYJ 220915Z AUTO 00000KT 10SM CLR 05/04 A3007 RMK AO2 T00500042 =
2017-02-22 03:55 METAR KFYJ 220855Z AUTO 00000KT 10SM CLR 05/04 A3007 RMK AO2 T00520044 =
2017-02-22 03:35 METAR KFYJ 220835Z AUTO 00000KT 10SM CLR 05/04 A3008 RMK AO2 T00510041 =
2017-02-22 03:15 METAR KFYJ 220815Z AUTO 00000KT 10SM CLR 06/05 A3008 RMK AO2 T00550046 =
2017-02-22 02:55 METAR KFYJ 220755Z AUTO 00000KT 10SM CLR 05/04 A3008 RMK AO2 T00530043 =
2017-02-22 02:35 METAR KFYJ 220735Z AUTO 00000KT 10SM CLR 06/05 A3009 RMK AO2 T00550045 =
2017-02-22 02:15 METAR KFYJ 220715Z AUTO 00000KT 10SM CLR 05/04 A3010 RMK AO2 T00520041 =
2017-02-22 01:55 METAR KFYJ 220655Z AUTO 00000KT 10SM CLR 05/04 A3011 RMK AO2 T00500037 =
2017-02-22 01:35 METAR KFYJ 220635Z AUTO 00000KT 10SM CLR 06/04 A3013 RMK AO2 T00550040 =
2017-02-22 01:15 METAR KFYJ 220615Z AUTO 00000KT 10SM CLR 06/05 A3013 RMK AO2 T00630045 =
2017-02-22 00:55 METAR KFYJ 220555Z AUTO 00000KT 10SM CLR 08/06 A3013 RMK AO2 T00750058 10084
                 20057 401390002 =
2017-02-22 00:35 METAR KFYJ 220535Z AUTO 00000KT 10SM CLR 07/05 A3013 RMK AO2 T00700051 =
2017-02-22 00:15 METAR KFYJ 220515Z AUTO 13003KT 10SM CLR 07/05 A3014 RMK AO2 T00670047 =
2017-02-21 23:55 METAR KFYJ 220455Z AUTO 13003KT 10SM CLR 07/05 A3014 RMK AO2 T00650045 =
2017-02-21 23:35 METAR KFYJ 220435Z AUTO 10003KT 10SM CLR 07/04 A3015 RMK AO2 T00650043 =
2017-02-21 23:15 METAR KFYJ 220415Z AUTO 11003KT 10SM CLR 07/04 A3015 RMK AO2 T00650041 =
2017-02-21 22:55 METAR KFYJ 220355Z AUTO 11003KT 10SM CLR 07/04 A3016 RMK AO2 T00660040 =
2017-02-21 22:35 METAR KFYJ 220335Z AUTO 12003KT 10SM CLR 07/04 A3017 RMK AO2 T00650036 =
2017-02-21 22:15 METAR KFYJ 220315Z AUTO 12005KT 10SM CLR 07/04 A3018 RMK AO2 T00670035 =
2017-02-21 21:55 METAR KFYJ 220255Z AUTO 12005KT 10SM CLR 07/04 A3019 RMK AO2 T00670035 =
2017-02-21 21:35 METAR KFYJ 220235Z AUTO 13003KT 10SM CLR 06/03 A3019 RMK AO2 T00630034 =
2017-02-21 21:15 METAR KFYJ 220215Z AUTO 11003KT 10SM CLR 06/03 A3020 RMK AO2 T00600029 =
2017-02-21 20:55 METAR KFYJ 220155Z AUTO 13004KT 10SM CLR 06/03 A3021 RMK AO2 T00620032 =
2017-02-21 20:35 METAR KFYJ 220135Z AUTO 09003KT 10SM CLR 06/03 A3021 RMK AO2 T00620030 =
2017-02-21 20:15 METAR KFYJ 220115Z AUTO 11003KT 10SM CLR 06/03 A3021 RMK AO2 T00640027 =
2017-02-21 19:55 METAR KFYJ 220055Z AUTO 11003KT 10SM CLR 07/03 A3021 RMK AO2 T00710029 =
2017-02-21 19:35 METAR KFYJ 220035Z AUTO 13004KT 10SM CLR 08/03 A3021 RMK AO2 T00770030 =
2017-02-21 19:15 METAR KFYJ 220015Z AUTO 11004KT 10SM CLR 08/03 A3021 RMK AO2 T00800027 =
2017-02-21 18:55 METAR KFYJ 212355Z AUTO 11006KT 10SM CLR 09/03 A3021 RMK AO2 T00850029 10139
                 20081 =
2017-02-21 18:35 METAR KFYJ 212335Z AUTO 11004KT 10SM CLR 09/03 A3021 RMK AO2 T00850025 =
2017-02-21 18:15 METAR KFYJ 212315Z AUTO 11005KT 10SM CLR 09/02 A3022 RMK AO2 T00860023 =
2017-02-21 17:55 METAR KFYJ 212255Z AUTO 12003KT 10SM CLR 09/03 A3021 RMK AO2 T00930028 =
2017-02-21 17:35 METAR KFYJ 212235Z AUTO 14004KT 10SM CLR 10/04 A3022 RMK AO2 T01030035 =
2017-02-21 17:15 METAR KFYJ 212215Z AUTO 12006KT 10SM CLR 11/01 A3021 RMK AO2 T01120010 =
2017-02-21 16:55 METAR KFYJ 212155Z AUTO 14008KT 10SM CLR 12/00 A3021 RMK AO2 T01210004 =
2017-02-21 16:35 METAR KFYJ 212135Z AUTO 13005KT 10SM CLR 13/02 A3021 RMK AO2 T01300017 =
2017-02-21 16:15 METAR KFYJ 212115Z AUTO 14005KT 10SM CLR 13/03 A3021 RMK AO2 T01310031 =
2017-02-21 15:55 METAR KFYJ 212055Z AUTO 15006KT 10SM CLR 13/03 A3021 RMK AO2 T01270033 =
2017-02-21 15:35 METAR KFYJ 212035Z AUTO 15007KT 10SM CLR 13/02 A3022 RMK AO2 T01250023 =
2017-02-21 15:15 METAR KFYJ 212015Z AUTO 15009KT 10SM CLR 13/02 A3023 RMK AO2 T01270016 =
2017-02-21 14:55 METAR KFYJ 211955Z AUTO 15009KT 10SM CLR 13/02 A3023 RMK AO2 T01320016 =
2017-02-21 14:35 METAR KFYJ 211935Z AUTO 16009KT 10SM CLR 14/02 A3023 RMK AO2 T01350020 =
2017-02-21 14:15 METAR KFYJ 211915Z AUTO 17008KT 10SM CLR 14/03 A3024 RMK AO2 T01380032 =
2017-02-21 13:55 METAR KFYJ 211855Z AUTO 16007KT 10SM CLR 13/02 A3025 RMK AO2 T01310024 =
2017-02-21 13:35 METAR KFYJ 211835Z AUTO 17009KT 10SM CLR 13/02 A3026 RMK AO2 T01340023 =
2017-02-21 13:15 METAR KFYJ 211815Z AUTO 18008KT 10SM CLR 13/02 A3027 RMK AO2 T01310023 =
2017-02-21 12:55 METAR KFYJ 211755Z AUTO 15008KT 10SM CLR 13/02 A3028 RMK AO2 T01320016 10132
                 20002 =
2017-02-21 12:35 METAR KFYJ 211735Z AUTO 18007KT 10SM CLR 12/01 A3030 RMK AO2 T01210014 =

Support USWX by starting your Amazon purchase here.